Terminal Aerodrome Forecast
Issued by NWS Twin Cities, MN

Home | Current Version | Previous Version | Text Only | Print | Product List | Glossary Off
Versions: 1 2 3 4 5 6 7 8 9 10 11 12 13 14 15 16 17 18 19 20 21 22 23 24 25 26 27 28 29 30 31

712
FTUS43 KMPX 231724
TAFMSP
TAF
KMSP 231724Z 2318/2424 19014G21KT P6SM -SHRA SCT050 OVC090
     FM232000 20012G18KT P6SM -SHRA SCT030 OVC045
      TEMPO 2320/2324 2SM TSRA OVC030CB
     FM240200 20009KT 6SM -SHRA BR SCT025 OVC035
     FM240600 20005KT 5SM BR BKN025
     FM241000 25004KT 4SM BR BKN015
     FM241400 27004KT P6SM SCT025=

USA.gov is the U.S. government's official web portal to all federal, state and local government web resources and services.